K2DP

Dare County Gunnery Range Airport

North Carolina, USA
METAR K2DP 171756Z AUTO 31008KT 10SM BKN140 21/15 A3007 RMK AO2 SLPNO 60002 T02110154 10211 20193 58008 $
Observed Flight Rules
Oct-17 @ 17:56 UTC (59 minutes ago) Visual Flight Rules
Wind Visibility Clouds
310° at 8 knots 10 miles
  • Broken at 14,000' AGL
Temperatures Readings
Current 21°C / 70°F
Dewpoint 15°C / 59°F
Humidity 69%
Altimeter 30.07" Hg
Pressure 1018 hPa
Elevation 3
METAR K2DP 171756Z AUTO 31008KT 10SM BKN140 21/15 A3007 RMK AO2 SLPNO 60002 T02110154 10211 20193 58008 $
Observed Flight Rules
Oct-17 @ 17:56 UTC
(59 minutes ago)
VFR
Wind Visibility
310° at 8 knots 10 miles
Clouds
  • Broken at 14,000' AGL
Temperature Dewpoint
21°C / 70°F 15°C / 59°F
Humidity Altimeter Pressure
69% 30.07" Hg 1018 hPa